sensor_id;sensor_type;location;lat;lon;timestamp;temperature;humidity
10889;DHT22;5497;51.388;6.780;2022-09-27T00:01:13;11.10;99.90
10889;DHT22;5497;51.388;6.780;2022-09-27T00:03:40;11.20;99.90
10889;DHT22;5497;51.388;6.780;2022-09-27T00:06:10;11.10;99.90
10889;DHT22;5497;51.388;6.780;2022-09-27T00:08:38;11.10;99.90
10889;DHT22;5497;51.388;6.780;2022-09-27T00:11:05;11.10;99.90
10889;DHT22;5497;51.388;6.780;2022-09-27T00:13:33;11.10;99.90
10889;DHT22;5497;51.388;6.780;2022-09-27T00:16:01;11.10;99.90
10889;DHT22;5497;51.388;6.780;2022-09-27T00:18:29;11.10;99.90
10889;DHT22;5497;51.388;6.780;2022-09-27T00:21:02;11.10;99.90
10889;DHT22;5497;51.388;6.780;2022-09-27T00:23:30;11.10;99.90
10889;DHT22;5497;51.388;6.780;2022-09-27T00:25:57;11.10;99.90
10889;DHT22;5497;51.388;6.780;2022-09-27T00:28:25;11.10;99.90
10889;DHT22;5497;51.388;6.780;2022-09-27T00:30:52;11.10;99.90
10889;DHT22;5497;51.388;6.780;2022-09-27T00:33:19;11.10;99.90
10889;DHT22;5497;51.388;6.780;2022-09-27T00:35:46;12.40;99.90
10889;DHT22;5497;51.388;6.780;2022-09-27T00:38:12;11.10;99.90
10889;DHT22;5497;51.388;6.780;2022-09-27T00:40:41;11.40;99.90
10889;DHT22;5497;51.388;6.780;2022-09-27T00:43:12;11.10;99.90
10889;DHT22;5497;51.388;6.780;2022-09-27T00:45:40;11.10;99.90
10889;DHT22;5497;51.388;6.780;2022-09-27T00:48:09;11.10;99.90
10889;DHT22;5497;51.388;6.780;2022-09-27T00:50:38;11.10;99.90
10889;DHT22;5497;51.388;6.780;2022-09-27T00:53:08;11.10;99.90
10889;DHT22;5497;51.388;6.780;2022-09-27T00:55:37;11.10;99.90
10889;DHT22;5497;51.388;6.780;2022-09-27T00:58:06;11.20;99.90
10889;DHT22;5497;51.388;6.780;2022-09-27T01:00:33;11.20;99.90
10889;DHT22;5497;51.388;6.780;2022-09-27T01:03:02;11.20;99.90
10889;DHT22;5497;51.388;6.780;2022-09-27T01:05:31;11.20;99.90
10889;DHT22;5497;51.388;6.780;2022-09-27T01:07:58;11.20;99.90
10889;DHT22;5497;51.388;6.780;2022-09-27T01:10:26;11.20;99.90
10889;DHT22;5497;51.388;6.780;2022-09-27T01:12:56;11.20;99.90
10889;DHT22;5497;51.388;6.780;2022-09-27T01:15:27;11.20;99.90
10889;DHT22;5497;51.388;6.780;2022-09-27T01:17:59;11.20;99.90
10889;DHT22;5497;51.388;6.780;2022-09-27T01:20:38;11.20;99.90
10889;DHT22;5497;51.388;6.780;2022-09-27T01:23:18;11.20;99.90
10889;DHT22;5497;51.388;6.780;2022-09-27T01:25:49;11.20;99.90
10889;DHT22;5497;51.388;6.780;2022-09-27T01:28:21;11.20;99.90
10889;DHT22;5497;51.388;6.780;2022-09-27T01:30:57;11.10;99.90
10889;DHT22;5497;51.388;6.780;2022-09-27T01:33:30;11.20;99.90
10889;DHT22;5497;51.388;6.780;2022-09-27T01:36:08;11.10;99.90
10889;DHT22;5497;51.388;6.780;2022-09-27T01:38:40;11.10;99.90
10889;DHT22;5497;51.388;6.780;2022-09-27T01:41:12;11.20;99.90
10889;DHT22;5497;51.388;6.780;2022-09-27T01:43:52;11.20;99.90
10889;DHT22;5497;51.388;6.780;2022-09-27T01:46:27;11.20;99.90
10889;DHT22;5497;51.388;6.780;2022-09-27T01:49:19;10.00;99.90
10889;DHT22;5497;51.388;6.780;2022-09-27T01:51:49;11.10;99.90
10889;DHT22;5497;51.388;6.780;2022-09-27T01:54:18;11.10;99.90
10889;DHT22;5497;51.388;6.780;2022-09-27T01:57:17;11.30;99.90
10889;DHT22;5497;51.388;6.780;2022-09-27T01:59:48;11.10;99.90
10889;DHT22;5497;51.388;6.780;2022-09-27T02:02:37;11.10;99.90
10889;DHT22;5497;51.388;6.780;2022-09-27T02:05:29;11.10;99.90
10889;DHT22;5497;51.388;6.780;2022-09-27T02:08:01;11.00;99.90
10889;DHT22;5497;51.388;6.780;2022-09-27T02:10:30;11.10;99.90
10889;DHT22;5497;51.388;6.780;2022-09-27T02:13:06;11.10;99.90
10889;DHT22;5497;51.388;6.780;2022-09-27T02:15:39;11.10;99.90
10889;DHT22;5497;51.388;6.780;2022-09-27T02:18:24;11.10;99.90
10889;DHT22;5497;51.388;6.780;2022-09-27T02:20:54;11.10;99.90
10889;DHT22;5497;51.388;6.780;2022-09-27T02:23:22;11.10;99.90
10889;DHT22;5497;51.388;6.780;2022-09-27T02:26:00;11.10;99.90
10889;DHT22;5497;51.388;6.780;2022-09-27T02:28:29;11.00;99.90
10889;DHT22;5497;51.388;6.780;2022-09-27T02:30:59;11.10;99.90
10889;DHT22;5497;51.388;6.780;2022-09-27T02:33:32;11.10;99.90
10889;DHT22;5497;51.388;6.780;2022-09-27T02:36:00;11.10;99.90
10889;DHT22;5497;51.388;6.780;2022-09-27T02:38:27;11.10;99.90
10889;DHT22;5497;51.388;6.780;2022-09-27T02:40:56;11.10;99.90
10889;DHT22;5497;51.388;6.780;2022-09-27T02:43:23;11.00;99.90
10889;DHT22;5497;51.388;6.780;2022-09-27T02:45:53;11.00;99.90
10889;DHT22;5497;51.388;6.780;2022-09-27T02:48:25;11.00;99.90
10889;DHT22;5497;51.388;6.780;2022-09-27T02:51:02;11.00;99.90
10889;DHT22;5497;51.388;6.780;2022-09-27T02:53:40;11.00;99.90
10889;DHT22;5497;51.388;6.780;2022-09-27T02:56:32;11.00;99.90
10889;DHT22;5497;51.388;6.780;2022-09-27T02:59:23;11.10;99.90
10889;DHT22;5497;51.388;6.780;2022-09-27T03:02:20;11.00;99.90
10889;DHT22;5497;51.388;6.780;2022-09-27T03:05:16;11.30;99.90
10889;DHT22;5497;51.388;6.780;2022-09-27T03:07:45;10.80;99.90
10889;DHT22;5497;51.388;6.780;2022-09-27T03:10:15;10.70;99.90
10889;DHT22;5497;51.388;6.780;2022-09-27T03:12:42;10.60;99.90
10889;DHT22;5497;51.388;6.780;2022-09-27T03:15:09;10.50;99.90
10889;DHT22;5497;51.388;6.780;2022-09-27T03:17:56;10.40;99.90
10889;DHT22;5497;51.388;6.780;2022-09-27T03:20:40;10.40;99.90
10889;DHT22;5497;51.388;6.780;2022-09-27T03:23:15;10.40;99.90
10889;DHT22;5497;51.388;6.780;2022-09-27T03:25:42;10.40;99.90
10889;DHT22;5497;51.388;6.780;2022-09-27T03:28:11;11.60;99.90
10889;DHT22;5497;51.388;6.780;2022-09-27T03:30:39;10.30;99.90
10889;DHT22;5497;51.388;6.780;2022-09-27T03:33:06;10.20;99.90
10889;DHT22;5497;51.388;6.780;2022-09-27T03:35:49;10.20;99.90
10889;DHT22;5497;51.388;6.780;2022-09-27T03:38:17;10.10;99.90
10889;DHT22;5497;51.388;6.780;2022-09-27T03:40:44;10.10;99.90
10889;DHT22;5497;51.388;6.780;2022-09-27T03:43:11;10.10;99.90
10889;DHT22;5497;51.388;6.780;2022-09-27T03:45:37;10.00;99.90
10889;DHT22;5497;51.388;6.780;2022-09-27T03:48:07;10.00;99.90
10889;DHT22;5497;51.388;6.780;2022-09-27T03:50:34;9.90;99.90
10889;DHT22;5497;51.388;6.780;2022-09-27T03:53:01;9.90;99.90
10889;DHT22;5497;51.388;6.780;2022-09-27T03:55:29;9.90;99.90
10889;DHT22;5497;51.388;6.780;2022-09-27T03:57:56;9.90;99.90
10889;DHT22;5497;51.388;6.780;2022-09-27T04:00:23;9.80;99.90
10889;DHT22;5497;51.388;6.780;2022-09-27T04:02:50;9.70;99.90
10889;DHT22;5497;51.388;6.780;2022-09-27T04:05:23;9.70;99.90
10889;DHT22;5497;51.388;6.780;2022-09-27T04:07:54;9.70;99.90
10889;DHT22;5497;51.388;6.780;2022-09-27T04:10:21;10.80;99.90
10889;DHT22;5497;51.388;6.780;2022-09-27T04:12:50;9.60;99.90
10889;DHT22;5497;51.388;6.780;2022-09-27T04:15:19;9.60;99.90
10889;DHT22;5497;51.388;6.780;2022-09-27T04:17:49;9.60;99.90
10889;DHT22;5497;51.388;6.780;2022-09-27T04:20:34;9.50;99.90
10889;DHT22;5497;51.388;6.780;2022-09-27T04:23:12;9.60;99.90
10889;DHT22;5497;51.388;6.780;2022-09-27T04:25:46;9.60;99.90
10889;DHT22;5497;51.388;6.780;2022-09-27T04:28:22;9.60;99.90
10889;DHT22;5497;51.388;6.780;2022-09-27T04:30:50;9.60;99.90
10889;DHT22;5497;51.388;6.780;2022-09-27T04:33:33;9.60;99.90
10889;DHT22;5497;51.388;6.780;2022-09-27T04:36:17;9.60;99.90
10889;DHT22;5497;51.388;6.780;2022-09-27T04:39:00;9.70;99.90
10889;DHT22;5497;51.388;6.780;2022-09-27T04:41:28;9.70;99.90
10889;DHT22;5497;51.388;6.780;2022-09-27T04:43:56;9.60;99.90
10889;DHT22;5497;51.388;6.780;2022-09-27T04:46:25;9.60;99.90
10889;DHT22;5497;51.388;6.780;2022-09-27T04:48:55;9.60;99.90
10889;DHT22;5497;51.388;6.780;2022-09-27T04:51:22;9.60;99.90
10889;DHT22;5497;51.388;6.780;2022-09-27T04:53:50;9.60;99.90
10889;DHT22;5497;51.388;6.780;2022-09-27T04:56:18;9.60;99.90
10889;DHT22;5497;51.388;6.780;2022-09-27T04:58:44;9.60;99.90
10889;DHT22;5497;51.388;6.780;2022-09-27T05:01:14;9.50;99.90
10889;DHT22;5497;51.388;6.780;2022-09-27T05:03:59;9.60;99.90
10889;DHT22;5497;51.388;6.780;2022-09-27T05:06:27;9.50;99.90
10889;DHT22;5497;51.388;6.780;2022-09-27T05:08:57;9.60;99.90
10889;DHT22;5497;51.388;6.780;2022-09-27T05:11:26;9.60;99.90
10889;DHT22;5497;51.388;6.780;2022-09-27T05:14:12;9.60;99.90
10889;DHT22;5497;51.388;6.780;2022-09-27T05:16:49;9.70;99.90
10889;DHT22;5497;51.388;6.780;2022-09-27T05:19:37;9.80;99.90
10889;DHT22;5497;51.388;6.780;2022-09-27T05:22:15;9.90;99.90
10889;DHT22;5497;51.388;6.780;2022-09-27T05:24:42;9.90;99.90
10889;DHT22;5497;51.388;6.780;2022-09-27T05:27:09;9.80;99.90
10889;DHT22;5497;51.388;6.780;2022-09-27T05:29:38;9.80;99.90
10889;DHT22;5497;51.388;6.780;2022-09-27T05:32:27;9.80;99.90
10889;DHT22;5497;51.388;6.780;2022-09-27T05:35:14;9.80;99.90
10889;DHT22;5497;51.388;6.780;2022-09-27T05:37:42;9.90;99.90
10889;DHT22;5497;51.388;6.780;2022-09-27T05:40:09;9.80;99.90
10889;DHT22;5497;51.388;6.780;2022-09-27T05:42:37;9.90;99.90
10889;DHT22;5497;51.388;6.780;2022-09-27T05:45:05;9.90;99.90
10889;DHT22;5497;51.388;6.780;2022-09-27T05:47:35;10.00;99.90
10889;DHT22;5497;51.388;6.780;2022-09-27T05:50:02;10.00;99.90
10889;DHT22;5497;51.388;6.780;2022-09-27T05:52:30;10.10;99.90
10889;DHT22;5497;51.388;6.780;2022-09-27T05:54:57;10.10;99.90
10889;DHT22;5497;51.388;6.780;2022-09-27T05:57:24;10.10;99.90
10889;DHT22;5497;51.388;6.780;2022-09-27T05:59:54;10.10;99.90
10889;DHT22;5497;51.388;6.780;2022-09-27T06:02:41;10.20;99.90
10889;DHT22;5497;51.388;6.780;2022-09-27T06:05:27;11.60;99.90
10889;DHT22;5497;51.388;6.780;2022-09-27T06:08:12;10.20;99.90
10889;DHT22;5497;51.388;6.780;2022-09-27T06:10:43;10.30;99.90
10889;DHT22;5497;51.388;6.780;2022-09-27T06:13:12;10.30;99.90
10889;DHT22;5497;51.388;6.780;2022-09-27T06:15:41;10.40;99.90
10889;DHT22;5497;51.388;6.780;2022-09-27T06:18:10;10.40;99.90
10889;DHT22;5497;51.388;6.780;2022-09-27T06:20:38;10.40;99.90
10889;DHT22;5497;51.388;6.780;2022-09-27T06:23:06;10.40;99.90
10889;DHT22;5497;51.388;6.780;2022-09-27T06:25:34;10.50;99.90
10889;DHT22;5497;51.388;6.780;2022-09-27T06:28:17;10.50;99.90
10889;DHT22;5497;51.388;6.780;2022-09-27T06:30:47;10.60;99.90
10889;DHT22;5497;51.388;6.780;2022-09-27T06:33:31;10.60;99.90
10889;DHT22;5497;51.388;6.780;2022-09-27T06:36:02;10.70;99.90
10889;DHT22;5497;51.388;6.780;2022-09-27T06:38:30;10.60;99.90
10889;DHT22;5497;51.388;6.780;2022-09-27T06:41:19;10.70;99.90
10889;DHT22;5497;51.388;6.780;2022-09-27T06:44:04;10.70;99.90
10889;DHT22;5497;51.388;6.780;2022-09-27T06:46:49;10.80;99.90
10889;DHT22;5497;51.388;6.780;2022-09-27T06:49:44;10.80;99.90
10889;DHT22;5497;51.388;6.780;2022-09-27T06:52:13;10.80;99.90
10889;DHT22;5497;51.388;6.780;2022-09-27T06:54:40;10.80;99.90
10889;DHT22;5497;51.388;6.780;2022-09-27T06:57:07;10.80;99.90
10889;DHT22;5497;51.388;6.780;2022-09-27T06:59:33;10.80;99.90
10889;DHT22;5497;51.388;6.780;2022-09-27T07:02:32;10.90;99.90
10889;DHT22;5497;51.388;6.780;2022-09-27T07:05:18;10.90;99.90
10889;DHT22;5497;51.388;6.780;2022-09-27T07:07:58;11.00;99.90
10889;DHT22;5497;51.388;6.780;2022-09-27T07:10:26;11.10;99.90
10889;DHT22;5497;51.388;6.780;2022-09-27T07:12:54;11.20;99.90
10889;DHT22;5497;51.388;6.780;2022-09-27T07:15:21;11.30;99.90
10889;DHT22;5497;51.388;6.780;2022-09-27T07:17:54;11.40;99.90
10889;DHT22;5497;51.388;6.780;2022-09-27T07:20:22;11.50;99.90
10889;DHT22;5497;51.388;6.780;2022-09-27T07:22:49;11.60;99.90
10889;DHT22;5497;51.388;6.780;2022-09-27T07:25:16;11.70;99.90
10889;DHT22;5497;51.388;6.780;2022-09-27T07:27:43;11.70;99.90
10889;DHT22;5497;51.388;6.780;2022-09-27T07:30:10;11.60;99.90
10889;DHT22;5497;51.388;6.780;2022-09-27T07:32:38;11.60;99.90
10889;DHT22;5497;51.388;6.780;2022-09-27T07:35:08;11.60;99.90
10889;DHT22;5497;51.388;6.780;2022-09-27T07:37:36;11.70;99.90
10889;DHT22;5497;51.388;6.780;2022-09-27T07:40:04;11.80;99.90
10889;DHT22;5497;51.388;6.780;2022-09-27T07:42:31;11.90;99.90
10889;DHT22;5497;51.388;6.780;2022-09-27T07:44:58;11.90;99.90
10889;DHT22;5497;51.388;6.780;2022-09-27T07:47:44;12.00;99.90
10889;DHT22;5497;51.388;6.780;2022-09-27T07:50:21;12.20;99.90
10889;DHT22;5497;51.388;6.780;2022-09-27T07:52:56;12.40;99.90
10889;DHT22;5497;51.388;6.780;2022-09-27T07:58:16;12.80;99.90
10889;DHT22;5497;51.388;6.780;2022-09-27T08:00:44;12.80;99.90
10889;DHT22;5497;51.388;6.780;2022-09-27T08:03:11;12.80;99.90
10889;DHT22;5497;51.388;6.780;2022-09-27T08:05:40;12.90;99.90
10889;DHT22;5497;51.388;6.780;2022-09-27T08:08:08;12.90;99.90
10889;DHT22;5497;51.388;6.780;2022-09-27T08:10:35;12.80;99.90
10889;DHT22;5497;51.388;6.780;2022-09-27T08:13:04;12.70;99.90
10889;DHT22;5497;51.388;6.780;2022-09-27T08:15:31;12.60;99.90
10889;DHT22;5497;51.388;6.780;2022-09-27T08:18:00;12.60;99.90
10889;DHT22;5497;51.388;6.780;2022-09-27T08:20:45;12.60;99.90
10889;DHT22;5497;51.388;6.780;2022-09-27T08:23:45;12.80;99.90
10889;DHT22;5497;51.388;6.780;2022-09-27T08:26:17;13.10;99.90
10889;DHT22;5497;51.388;6.780;2022-09-27T08:29:13;13.30;99.90
10889;DHT22;5497;51.388;6.780;2022-09-27T08:31:49;13.30;99.90
10889;DHT22;5497;51.388;6.780;2022-09-27T08:34:18;13.20;99.90
10889;DHT22;5497;51.388;6.780;2022-09-27T08:36:45;12.90;99.90
10889;DHT22;5497;51.388;6.780;2022-09-27T08:39:13;13.20;99.90
10889;DHT22;5497;51.388;6.780;2022-09-27T08:41:45;13.20;99.90
10889;DHT22;5497;51.388;6.780;2022-09-27T08:44:17;13.20;99.90
10889;DHT22;5497;51.388;6.780;2022-09-27T08:47:00;13.10;99.90
10889;DHT22;5497;51.388;6.780;2022-09-27T08:49:30;13.10;99.90
10889;DHT22;5497;51.388;6.780;2022-09-27T08:51:58;12.90;99.90
10889;DHT22;5497;51.388;6.780;2022-09-27T08:54:27;12.90;99.90
10889;DHT22;5497;51.388;6.780;2022-09-27T08:56:56;12.90;99.90
10889;DHT22;5497;51.388;6.780;2022-09-27T08:59:27;12.90;99.90
10889;DHT22;5497;51.388;6.780;2022-09-27T09:01:55;12.30;99.90
10889;DHT22;5497;51.388;6.780;2022-09-27T09:04:31;13.20;99.90
10889;DHT22;5497;51.388;6.780;2022-09-27T09:07:03;13.10;99.90
10889;DHT22;5497;51.388;6.780;2022-09-27T09:09:36;13.00;99.90
10889;DHT22;5497;51.388;6.780;2022-09-27T09:12:18;13.00;99.90
10889;DHT22;5497;51.388;6.780;2022-09-27T09:15:12;13.00;99.90
10889;DHT22;5497;51.388;6.780;2022-09-27T09:20:33;13.20;99.90
10889;DHT22;5497;51.388;6.780;2022-09-27T09:23:16;14.40;99.90
10889;DHT22;5497;51.388;6.780;2022-09-27T09:25:49;13.20;99.90
10889;DHT22;5497;51.388;6.780;2022-09-27T09:28:22;13.20;99.90
10889;DHT22;5497;51.388;6.780;2022-09-27T09:30:54;13.30;99.90
10889;DHT22;5497;51.388;6.780;2022-09-27T09:33:23;13.40;99.90
10889;DHT22;5497;51.388;6.780;2022-09-27T09:35:53;13.70;99.90
10889;DHT22;5497;51.388;6.780;2022-09-27T09:38:26;13.70;99.90
10889;DHT22;5497;51.388;6.780;2022-09-27T09:40:57;14.00;99.90
10889;DHT22;5497;51.388;6.780;2022-09-27T09:43:28;14.20;99.90
10889;DHT22;5497;51.388;6.780;2022-09-27T09:45:57;14.40;99.90
10889;DHT22;5497;51.388;6.780;2022-09-27T09:48:27;14.40;99.90
10889;DHT22;5497;51.388;6.780;2022-09-27T09:50:56;14.50;99.90
10889;DHT22;5497;51.388;6.780;2022-09-27T09:53:28;14.60;99.90
10889;DHT22;5497;51.388;6.780;2022-09-27T09:56:01;14.50;99.90
10889;DHT22;5497;51.388;6.780;2022-09-27T09:58:30;14.50;99.90
10889;DHT22;5497;51.388;6.780;2022-09-27T10:01:10;14.50;99.90
10889;DHT22;5497;51.388;6.780;2022-09-27T10:03:39;14.50;99.90
10889;DHT22;5497;51.388;6.780;2022-09-27T10:06:07;14.50;99.90
10889;DHT22;5497;51.388;6.780;2022-09-27T10:08:35;14.50;99.90
10889;DHT22;5497;51.388;6.780;2022-09-27T10:11:22;14.40;99.90
10889;DHT22;5497;51.388;6.780;2022-09-27T10:14:07;14.50;99.90
10889;DHT22;5497;51.388;6.780;2022-09-27T10:16:35;14.60;99.90
10889;DHT22;5497;51.388;6.780;2022-09-27T10:19:02;14.60;99.90
10889;DHT22;5497;51.388;6.780;2022-09-27T10:21:30;14.50;99.90
10889;DHT22;5497;51.388;6.780;2022-09-27T10:24:03;14.60;99.90
10889;DHT22;5497;51.388;6.780;2022-09-27T10:26:58;14.60;99.90
10889;DHT22;5497;51.388;6.780;2022-09-27T10:29:28;14.50;99.90
10889;DHT22;5497;51.388;6.780;2022-09-27T10:31:55;14.40;99.90
10889;DHT22;5497;51.388;6.780;2022-09-27T10:34:31;14.40;99.90
10889;DHT22;5497;51.388;6.780;2022-09-27T10:37:06;14.50;99.90
10889;DHT22;5497;51.388;6.780;2022-09-27T10:39:35;14.50;99.90
10889;DHT22;5497;51.388;6.780;2022-09-27T10:42:14;14.40;99.90
10889;DHT22;5497;51.388;6.780;2022-09-27T10:44:45;14.30;99.90
10889;DHT22;5497;51.388;6.780;2022-09-27T10:47:23;14.20;99.90
10889;DHT22;5497;51.388;6.780;2022-09-27T10:50:18;14.30;99.90
10889;DHT22;5497;51.388;6.780;2022-09-27T10:53:00;14.30;99.90
10889;DHT22;5497;51.388;6.780;2022-09-27T10:55:28;14.40;99.90
10889;DHT22;5497;51.388;6.780;2022-09-27T10:58:00;14.40;99.90
10889;DHT22;5497;51.388;6.780;2022-09-27T11:00:28;14.50;99.90
10889;DHT22;5497;51.388;6.780;2022-09-27T11:02:58;14.40;99.90
10889;DHT22;5497;51.388;6.780;2022-09-27T11:05:30;14.40;99.90
10889;DHT22;5497;51.388;6.780;2022-09-27T11:07:59;14.30;99.90
10889;DHT22;5497;51.388;6.780;2022-09-27T11:10:59;14.20;99.90
10889;DHT22;5497;51.388;6.780;2022-09-27T11:13:27;14.20;99.90
10889;DHT22;5497;51.388;6.780;2022-09-27T11:16:01;14.10;99.90
10889;DHT22;5497;51.388;6.780;2022-09-27T11:18:33;14.20;99.90
10889;DHT22;5497;51.388;6.780;2022-09-27T11:21:08;14.20;99.90
10889;DHT22;5497;51.388;6.780;2022-09-27T11:23:44;14.30;99.90
10889;DHT22;5497;51.388;6.780;2022-09-27T11:26:33;14.40;99.90
10889;DHT22;5497;51.388;6.780;2022-09-27T11:29:07;14.50;99.90
10889;DHT22;5497;51.388;6.780;2022-09-27T11:32:07;14.50;99.90
10889;DHT22;5497;51.388;6.780;2022-09-27T11:34:48;14.60;99.90
10889;DHT22;5497;51.388;6.780;2022-09-27T11:37:21;14.80;99.90
10889;DHT22;5497;51.388;6.780;2022-09-27T11:40:02;15.00;99.90
10889;DHT22;5497;51.388;6.780;2022-09-27T11:42:37;15.20;99.90
10889;DHT22;5497;51.388;6.780;2022-09-27T11:45:18;15.40;99.90
10889;DHT22;5497;51.388;6.780;2022-09-27T11:47:48;15.50;99.90
10889;DHT22;5497;51.388;6.780;2022-09-27T11:50:29;15.50;99.90
10889;DHT22;5497;51.388;6.780;2022-09-27T11:53:02;15.30;99.90
10889;DHT22;5497;51.388;6.780;2022-09-27T11:55:39;15.50;99.90
10889;DHT22;5497;51.388;6.780;2022-09-27T11:58:11;15.20;99.90
10889;DHT22;5497;51.388;6.780;2022-09-27T12:00:49;16.10;99.90
10889;DHT22;5497;51.388;6.780;2022-09-27T12:03:29;14.80;99.90
10889;DHT22;5497;51.388;6.780;2022-09-27T12:06:06;14.40;99.90
10889;DHT22;5497;51.388;6.780;2022-09-27T12:08:42;14.40;99.90
10889;DHT22;5497;51.388;6.780;2022-09-27T12:11:15;14.20;99.90
10889;DHT22;5497;51.388;6.780;2022-09-27T12:13:44;14.00;99.90
10889;DHT22;5497;51.388;6.780;2022-09-27T12:16:15;13.80;99.90
10889;DHT22;5497;51.388;6.780;2022-09-27T12:18:42;13.50;99.90
10889;DHT22;5497;51.388;6.780;2022-09-27T12:21:31;14.50;99.90
10889;DHT22;5497;51.388;6.780;2022-09-27T12:23:59;13.20;99.90
10889;DHT22;5497;51.388;6.780;2022-09-27T12:26:34;13.30;99.90
10889;DHT22;5497;51.388;6.780;2022-09-27T12:29:04;13.40;99.90
10889;DHT22;5497;51.388;6.780;2022-09-27T12:31:34;13.50;99.90
10889;DHT22;5497;51.388;6.780;2022-09-27T12:34:05;13.50;99.90
10889;DHT22;5497;51.388;6.780;2022-09-27T12:36:38;13.50;99.90
10889;DHT22;5497;51.388;6.780;2022-09-27T12:39:10;13.40;99.90
10889;DHT22;5497;51.388;6.780;2022-09-27T12:41:45;13.20;99.90
10889;DHT22;5497;51.388;6.780;2022-09-27T12:44:22;13.00;99.90
10889;DHT22;5497;51.388;6.780;2022-09-27T12:46:56;12.90;99.90
10889;DHT22;5497;51.388;6.780;2022-09-27T12:49:29;12.80;99.90
10889;DHT22;5497;51.388;6.780;2022-09-27T12:51:59;12.70;99.90
10889;DHT22;5497;51.388;6.780;2022-09-27T12:54:42;12.80;99.90
10889;DHT22;5497;51.388;6.780;2022-09-27T12:57:17;12.90;99.90
10889;DHT22;5497;51.388;6.780;2022-09-27T12:59:51;13.10;99.90
10889;DHT22;5497;51.388;6.780;2022-09-27T13:02:38;13.20;99.90
10889;DHT22;5497;51.388;6.780;2022-09-27T13:05:21;13.30;99.90
10889;DHT22;5497;51.388;6.780;2022-09-27T13:08:08;12.20;99.90
10889;DHT22;5497;51.388;6.780;2022-09-27T13:10:42;13.80;99.90
10889;DHT22;5497;51.388;6.780;2022-09-27T13:13:22;14.00;99.90
10889;DHT22;5497;51.388;6.780;2022-09-27T13:15:53;14.30;99.90
10889;DHT22;5497;51.388;6.780;2022-09-27T13:18:30;14.30;99.90
10889;DHT22;5497;51.388;6.780;2022-09-27T13:20:57;14.50;99.90
10889;DHT22;5497;51.388;6.780;2022-09-27T13:26:44;14.70;99.90
10889;DHT22;5497;51.388;6.780;2022-09-27T13:32:02;14.90;99.90
10889;DHT22;5497;51.388;6.780;2022-09-27T13:35:10;14.90;99.90
10889;DHT22;5497;51.388;6.780;2022-09-27T13:37:45;15.00;99.90
10889;DHT22;5497;51.388;6.780;2022-09-27T13:40:20;15.00;99.90
10889;DHT22;5497;51.388;6.780;2022-09-27T13:45:58;15.40;99.90
10889;DHT22;5497;51.388;6.780;2022-09-27T13:48:30;15.60;99.90
10889;DHT22;5497;51.388;6.780;2022-09-27T13:51:00;15.40;99.90
10889;DHT22;5497;51.388;6.780;2022-09-27T13:53:28;15.40;99.90
10889;DHT22;5497;51.388;6.780;2022-09-27T13:55:56;15.20;99.90
10889;DHT22;5497;51.388;6.780;2022-09-27T13:58:41;15.20;99.90
10889;DHT22;5497;51.388;6.780;2022-09-27T14:01:30;15.00;99.90
10889;DHT22;5497;51.388;6.780;2022-09-27T14:04:00;14.90;99.90
10889;DHT22;5497;51.388;6.780;2022-09-27T14:06:30;15.60;99.90
10889;DHT22;5497;51.388;6.780;2022-09-27T14:09:01;14.80;99.90
10889;DHT22;5497;51.388;6.780;2022-09-27T14:11:31;14.70;99.90
10889;DHT22;5497;51.388;6.780;2022-09-27T14:13:59;14.70;99.90
10889;DHT22;5497;51.388;6.780;2022-09-27T14:16:31;14.70;99.90
10889;DHT22;5497;51.388;6.780;2022-09-27T14:18:58;14.80;99.90
10889;DHT22;5497;51.388;6.780;2022-09-27T14:21:35;15.00;99.90
10889;DHT22;5497;51.388;6.780;2022-09-27T14:24:22;15.20;99.90
10889;DHT22;5497;51.388;6.780;2022-09-27T14:26:50;15.40;99.90
10889;DHT22;5497;51.388;6.780;2022-09-27T14:29:17;15.60;99.90
10889;DHT22;5497;51.388;6.780;2022-09-27T14:31:44;15.70;99.90
10889;DHT22;5497;51.388;6.780;2022-09-27T14:34:17;15.80;99.90
10889;DHT22;5497;51.388;6.780;2022-09-27T14:36:47;15.80;99.90
10889;DHT22;5497;51.388;6.780;2022-09-27T14:39:41;15.70;99.90
10889;DHT22;5497;51.388;6.780;2022-09-27T14:42:26;15.40;99.90
10889;DHT22;5497;51.388;6.780;2022-09-27T14:44:58;15.10;99.90
10889;DHT22;5497;51.388;6.780;2022-09-27T14:47:26;14.80;99.90
10889;DHT22;5497;51.388;6.780;2022-09-27T14:49:54;14.60;99.90
10889;DHT22;5497;51.388;6.780;2022-09-27T14:52:24;14.40;99.90
10889;DHT22;5497;51.388;6.780;2022-09-27T14:54:56;14.30;99.90
10889;DHT22;5497;51.388;6.780;2022-09-27T14:57:24;14.30;99.90
10889;DHT22;5497;51.388;6.780;2022-09-27T14:59:51;14.30;99.90
10889;DHT22;5497;51.388;6.780;2022-09-27T15:02:18;14.50;99.90
10889;DHT22;5497;51.388;6.780;2022-09-27T15:04:46;14.70;99.90
10889;DHT22;5497;51.388;6.780;2022-09-27T15:07:15;14.80;99.90
10889;DHT22;5497;51.388;6.780;2022-09-27T15:09:43;14.90;99.90
10889;DHT22;5497;51.388;6.780;2022-09-27T15:12:10;15.00;99.90
10889;DHT22;5497;51.388;6.780;2022-09-27T15:14:39;15.00;99.90
10889;DHT22;5497;51.388;6.780;2022-09-27T15:17:12;15.00;99.90
10889;DHT22;5497;51.388;6.780;2022-09-27T15:19:39;14.80;99.90
10889;DHT22;5497;51.388;6.780;2022-09-27T15:22:21;14.70;99.90
10889;DHT22;5497;51.388;6.780;2022-09-27T15:24:49;14.50;99.90
10889;DHT22;5497;51.388;6.780;2022-09-27T15:27:16;14.30;99.90
10889;DHT22;5497;51.388;6.780;2022-09-27T15:29:46;14.20;99.90
10889;DHT22;5497;51.388;6.780;2022-09-27T15:32:14;14.00;99.90
10889;DHT22;5497;51.388;6.780;2022-09-27T15:34:42;13.90;99.90
10889;DHT22;5497;51.388;6.780;2022-09-27T15:37:15;13.80;99.90
10889;DHT22;5497;51.388;6.780;2022-09-27T15:39:50;13.70;99.90
10889;DHT22;5497;51.388;6.780;2022-09-27T15:42:17;13.60;99.90
10889;DHT22;5497;51.388;6.780;2022-09-27T15:44:45;13.50;99.90
10889;DHT22;5497;51.388;6.780;2022-09-27T15:49:59;13.20;99.90
10889;DHT22;5497;51.388;6.780;2022-09-27T15:52:47;13.00;99.90
10889;DHT22;5497;51.388;6.780;2022-09-27T15:55:16;12.70;99.90
10889;DHT22;5497;51.388;6.780;2022-09-27T15:57:44;12.60;99.90
10889;DHT22;5497;51.388;6.780;2022-09-27T16:00:14;12.60;99.90
10889;DHT22;5497;51.388;6.780;2022-09-27T16:02:41;12.50;99.90
10889;DHT22;5497;51.388;6.780;2022-09-27T16:05:08;12.50;99.90
10889;DHT22;5497;51.388;6.780;2022-09-27T16:07:35;12.50;99.90
10889;DHT22;5497;51.388;6.780;2022-09-27T16:10:04;12.40;99.90
10889;DHT22;5497;51.388;6.780;2022-09-27T16:12:34;12.40;99.90
10889;DHT22;5497;51.388;6.780;2022-09-27T16:15:00;12.40;99.90
10889;DHT22;5497;51.388;6.780;2022-09-27T16:17:27;12.30;99.90
10889;DHT22;5497;51.388;6.780;2022-09-27T16:19:54;12.20;99.90
10889;DHT22;5497;51.388;6.780;2022-09-27T16:22:20;12.10;99.90
10889;DHT22;5497;51.388;6.780;2022-09-27T16:24:47;12.00;99.90
10889;DHT22;5497;51.388;6.780;2022-09-27T16:27:22;11.90;99.90
10889;DHT22;5497;51.388;6.780;2022-09-27T16:29:48;11.80;99.90
10889;DHT22;5497;51.388;6.780;2022-09-27T16:32:15;11.80;99.90
10889;DHT22;5497;51.388;6.780;2022-09-27T16:34:42;11.60;99.90
10889;DHT22;5497;51.388;6.780;2022-09-27T16:37:09;11.60;99.90
10889;DHT22;5497;51.388;6.780;2022-09-27T16:39:36;11.50;99.90
10889;DHT22;5497;51.388;6.780;2022-09-27T16:42:04;11.50;99.90